createdAt,value
2016-12-07T00:00:18.045Z,1031.21
2016-12-07T00:01:26.904Z,1031.19
2016-12-07T00:02:35.761Z,1031.24
2016-12-07T00:03:44.618Z,1031.21
2016-12-07T00:04:53.470Z,1031.25
2016-12-07T00:06:02.345Z,1031.32
2016-12-07T00:07:11.184Z,1031.3
2016-12-07T00:08:20.038Z,1031.32
2016-12-07T00:09:28.875Z,1031.31
2016-12-07T00:10:37.740Z,1031.22
2016-12-07T00:11:46.603Z,1031.29
2016-12-07T00:12:55.437Z,1031.28
2016-12-07T00:14:04.305Z,1031.29
2016-12-07T00:15:13.171Z,1031.33
2016-12-07T00:16:22.035Z,1031.32
2016-12-07T00:17:30.887Z,1031.32
2016-12-07T00:18:39.747Z,1031.32
2016-12-07T00:19:48.594Z,1031.31
2016-12-07T00:20:57.437Z,1031.27
2016-12-07T00:22:06.298Z,1031.25
2016-12-07T00:23:15.166Z,1031.21
2016-12-07T00:24:24.032Z,1031.23
2016-12-07T00:25:32.869Z,1031.23
2016-12-07T00:26:41.722Z,1031.34
2016-12-07T00:27:50.593Z,1031.38
2016-12-07T00:28:59.442Z,1031.37
2016-12-07T00:30:08.286Z,1031.38
2016-12-07T00:31:17.148Z,1031.3
2016-12-07T00:32:25.998Z,1031.32
2016-12-07T00:33:34.863Z,1031.33
2016-12-07T00:34:43.736Z,1031.35
2016-12-07T00:35:52.594Z,1031.31
2016-12-07T00:37:01.443Z,1031.36
2016-12-07T00:38:10.296Z,1031.34
2016-12-07T00:39:19.175Z,1031.36
2016-12-07T00:40:28.353Z,1031.39
2016-12-07T00:41:37.190Z,1031.39
2016-12-07T00:42:46.037Z,1031.43
2016-12-07T00:43:54.909Z,1031.4
2016-12-07T00:45:03.774Z,1031.39
2016-12-07T00:46:12.628Z,1031.38
2016-12-07T00:47:21.512Z,1031.34
2016-12-07T00:48:30.389Z,1031.31
2016-12-07T00:49:39.217Z,1031.33
2016-12-07T00:50:48.080Z,1031.31
2016-12-07T00:51:56.961Z,1031.37
2016-12-07T00:53:05.804Z,1031.35
2016-12-07T00:54:14.657Z,1031.32
2016-12-07T00:55:23.530Z,1031.37
2016-12-07T00:56:32.379Z,1031.35
2016-12-07T00:57:41.222Z,1031.35
2016-12-07T00:58:50.093Z,1031.37
2016-12-07T00:59:58.953Z,1031.37
2016-12-07T01:01:07.799Z,1031.36
2016-12-07T01:02:16.658Z,1031.36
2016-12-07T01:03:25.508Z,1031.36
2016-12-07T01:04:34.343Z,1031.36
2016-12-07T01:05:43.214Z,1031.39
2016-12-07T01:06:52.054Z,1031.32
2016-12-07T01:08:00.921Z,1031.36
2016-12-07T01:09:09.781Z,1031.38
2016-12-07T01:10:18.620Z,1031.38
2016-12-07T01:11:27.488Z,1031.35
2016-12-07T01:12:36.353Z,1031.35
2016-12-07T01:13:45.199Z,1031.35
2016-12-07T01:14:54.052Z,1031.39
2016-12-07T01:16:02.909Z,1031.36
2016-12-07T01:17:11.745Z,1031.36
2016-12-07T01:18:20.608Z,1031.4
2016-12-07T01:19:29.483Z,1031.41
2016-12-07T01:20:38.317Z,1031.43
2016-12-07T01:21:47.171Z,1031.44
2016-12-07T01:22:56.018Z,1031.43
2016-12-07T01:24:04.886Z,1031.39
2016-12-07T01:25:13.755Z,1031.41
2016-12-07T01:26:22.595Z,1031.4
2016-12-07T01:27:31.456Z,1031.38
2016-12-07T01:28:40.324Z,1031.35
2016-12-07T01:29:49.169Z,1031.36
2016-12-07T01:30:58.021Z,1031.37
2016-12-07T01:32:06.888Z,1031.37
2016-12-07T01:33:15.741Z,1031.38
2016-12-07T01:34:24.581Z,1031.44
2016-12-07T01:35:33.435Z,1031.53
2016-12-07T01:36:42.285Z,1031.58
2016-12-07T01:37:51.168Z,1031.54
2016-12-07T01:39:00.005Z,1031.58
2016-12-07T01:40:08.844Z,1031.58
2016-12-07T01:41:17.717Z,1031.56
2016-12-07T01:42:26.551Z,1031.57
2016-12-07T01:43:35.400Z,1031.52
2016-12-07T01:44:44.265Z,1031.55
2016-12-07T01:45:53.434Z,1031.52
2016-12-07T01:47:02.269Z,1031.5
2016-12-07T01:48:11.135Z,1031.51
2016-12-07T01:49:19.996Z,1031.51
2016-12-07T01:50:28.834Z,1031.54
2016-12-07T01:51:37.689Z,1031.51
2016-12-07T01:52:46.547Z,1031.54
2016-12-07T01:53:55.389Z,1031.47
2016-12-07T01:55:04.245Z,1031.43
2016-12-07T01:56:13.107Z,1031.4
2016-12-07T01:57:21.973Z,1031.35
2016-12-07T01:58:30.837Z,1031.4
2016-12-07T01:59:39.697Z,1031.4
2016-12-07T02:00:48.553Z,1031.42
2016-12-07T02:01:57.393Z,1031.45
2016-12-07T02:03:06.269Z,1031.45
2016-12-07T02:04:15.109Z,1031.47
2016-12-07T02:05:23.979Z,1031.46
2016-12-07T02:06:32.823Z,1031.55
2016-12-07T02:07:41.681Z,1031.54
2016-12-07T02:08:50.571Z,1031.55
2016-12-07T02:09:59.739Z,1031.6
2016-12-07T02:11:08.586Z,1031.62
2016-12-07T02:12:17.447Z,1031.58
2016-12-07T02:13:26.297Z,1031.6
2016-12-07T02:14:35.155Z,1031.59
2016-12-07T02:15:44.016Z,1031.6
2016-12-07T02:16:52.881Z,1031.55
2016-12-07T02:18:01.715Z,1031.54
2016-12-07T02:19:10.582Z,1031.49
2016-12-07T02:20:19.422Z,1031.46
2016-12-07T02:21:28.285Z,1031.42
2016-12-07T02:22:37.162Z,1031.43
2016-12-07T02:23:45.994Z,1031.39
2016-12-07T02:24:54.873Z,1031.42
2016-12-07T02:26:03.727Z,1031.45
2016-12-07T02:27:12.569Z,1031.44
2016-12-07T02:28:21.427Z,1031.43
2016-12-07T02:29:30.284Z,1031.42
2016-12-07T02:30:39.125Z,1031.46
2016-12-07T02:31:47.979Z,1031.44
2016-12-07T02:32:56.877Z,1031.45
2016-12-07T02:34:05.726Z,1031.43
2016-12-07T02:35:14.566Z,1031.42
2016-12-07T02:36:23.418Z,1031.47
2016-12-07T02:37:32.276Z,1031.41
2016-12-07T02:38:41.139Z,1031.43
2016-12-07T02:39:50.279Z,1031.41
2016-12-07T02:40:59.140Z,1031.42
2016-12-07T02:42:08.001Z,1031.41
2016-12-07T02:43:16.837Z,1031.39
2016-12-07T02:44:25.695Z,1031.43
2016-12-07T02:45:34.560Z,1031.4
2016-12-07T02:46:43.402Z,1031.44
2016-12-07T02:47:52.237Z,1031.43
2016-12-07T02:49:01.413Z,1031.39
2016-12-07T02:50:10.275Z,1031.36
2016-12-07T02:51:19.172Z,1031.39
2016-12-07T02:52:27.999Z,1031.32
2016-12-07T02:53:36.847Z,1031.31
2016-12-07T02:54:45.700Z,1031.32
2016-12-07T02:55:54.544Z,1031.3
2016-12-07T02:57:03.386Z,1031.34
2016-12-07T02:58:12.256Z,1031.35
2016-12-07T02:59:21.098Z,1031.35
2016-12-07T03:00:29.951Z,1031.34
2016-12-07T03:01:38.817Z,1031.32
2016-12-07T03:02:47.680Z,1031.29
2016-12-07T03:03:56.534Z,1031.28
2016-12-07T03:05:05.381Z,1031.24
2016-12-07T03:06:14.223Z,1031.22
2016-12-07T03:07:23.090Z,1031.17
2016-12-07T03:08:31.945Z,1031.18
2016-12-07T03:09:40.813Z,1031.16
2016-12-07T03:10:49.677Z,1031.11
2016-12-07T03:11:58.519Z,1031.1
2016-12-07T03:13:07.362Z,1031.11
2016-12-07T03:14:16.225Z,1031.08
2016-12-07T03:15:25.078Z,1031.06
2016-12-07T03:16:33.921Z,1031.04
2016-12-07T03:17:42.759Z,1031.04
2016-12-07T03:18:51.597Z,1031.01
2016-12-07T03:20:00.470Z,1030.99
2016-12-07T03:21:09.326Z,1030.94
2016-12-07T03:22:18.169Z,1030.91
2016-12-07T03:23:27.026Z,1030.9
2016-12-07T03:24:35.877Z,1030.91
2016-12-07T03:25:44.721Z,1030.93
2016-12-07T03:26:53.617Z,1030.92
2016-12-07T03:28:02.486Z,1030.95
2016-12-07T03:29:11.319Z,1030.9
2016-12-07T03:30:20.171Z,1030.91
2016-12-07T03:31:29.041Z,1030.93
2016-12-07T03:32:37.892Z,1030.91
2016-12-07T03:33:46.762Z,1030.92
2016-12-07T03:34:55.601Z,1030.9
2016-12-07T03:36:04.465Z,1030.84
2016-12-07T03:37:13.339Z,1030.83
2016-12-07T03:38:22.177Z,1030.82
2016-12-07T03:39:31.037Z,1030.77
2016-12-07T03:40:39.896Z,1030.82
2016-12-07T03:41:48.729Z,1030.78
2016-12-07T03:42:57.565Z,1030.73
2016-12-07T03:44:06.436Z,1030.7
2016-12-07T03:45:15.280Z,1030.69
2016-12-07T03:46:24.125Z,1030.64
2016-12-07T03:47:32.985Z,1030.64
2016-12-07T03:48:41.842Z,1030.64
2016-12-07T03:49:50.674Z,1030.59
2016-12-07T03:50:59.545Z,1030.6
2016-12-07T03:52:08.406Z,1030.59
2016-12-07T03:53:17.281Z,1030.58
2016-12-07T03:54:26.124Z,1030.57
2016-12-07T03:55:34.995Z,1030.59
2016-12-07T03:56:43.844Z,1030.59
2016-12-07T03:57:52.689Z,1030.56
2016-12-07T03:59:01.558Z,1030.57
2016-12-07T04:00:10.403Z,1030.58
2016-12-07T04:01:19.250Z,1030.59
2016-12-07T04:02:28.103Z,1030.59
2016-12-07T04:03:36.959Z,1030.56
2016-12-07T04:04:45.833Z,1030.57
2016-12-07T04:05:54.665Z,1030.55
2016-12-07T04:07:03.522Z,1030.53
2016-12-07T04:08:12.415Z,1030.55
2016-12-07T04:09:21.255Z,1030.51
2016-12-07T04:10:30.096Z,1030.49
2016-12-07T04:11:38.999Z,1030.52
2016-12-07T04:12:47.849Z,1030.51
2016-12-07T04:13:56.689Z,1030.47
2016-12-07T04:15:05.557Z,1030.51
2016-12-07T04:16:14.408Z,1030.52
2016-12-07T04:17:23.269Z,1030.53
2016-12-07T04:18:32.113Z,1030.5
2016-12-07T04:19:40.948Z,1030.51
2016-12-07T04:20:49.809Z,1030.47
2016-12-07T04:21:58.656Z,1030.49
2016-12-07T04:23:07.506Z,1030.44
2016-12-07T04:24:16.374Z,1030.48
2016-12-07T04:25:25.235Z,1030.45
2016-12-07T04:26:34.074Z,1030.47
2016-12-07T04:27:42.928Z,1030.45
2016-12-07T04:28:51.781Z,1030.46
2016-12-07T04:30:00.943Z,1030.43
2016-12-07T04:31:09.805Z,1030.37
2016-12-07T04:32:18.962Z,1030.39
2016-12-07T04:33:27.820Z,1030.35
2016-12-07T04:34:36.687Z,1030.38
2016-12-07T04:35:45.522Z,1030.35
2016-12-07T04:36:54.379Z,1030.34
2016-12-07T04:38:03.234Z,1030.34
2016-12-07T04:39:12.084Z,1030.37
2016-12-07T04:40:20.939Z,1030.34
2016-12-07T04:41:29.811Z,1030.32
2016-12-07T04:42:38.655Z,1030.31
2016-12-07T04:43:47.497Z,1030.28
2016-12-07T04:44:56.399Z,1030.3
2016-12-07T04:46:05.242Z,1030.27
2016-12-07T04:47:14.116Z,1030.23
2016-12-07T04:48:22.948Z,1030.25
2016-12-07T04:49:31.796Z,1030.19
2016-12-07T04:50:40.668Z,1030.21
2016-12-07T04:51:49.503Z,1030.21
2016-12-07T04:52:58.351Z,1030.26
2016-12-07T04:54:07.224Z,1030.22
2016-12-07T04:55:16.061Z,1030.22
2016-12-07T04:56:24.896Z,1030.28
2016-12-07T04:57:33.765Z,1030.26
2016-12-07T04:58:42.615Z,1030.3
2016-12-07T04:59:51.461Z,1030.34
2016-12-07T05:01:00.321Z,1030.31
2016-12-07T05:02:09.172Z,1030.34
2016-12-07T05:03:18.048Z,1030.34
2016-12-07T05:04:26.883Z,1030.37
2016-12-07T05:05:35.728Z,1030.37
2016-12-07T05:06:44.604Z,1030.41
2016-12-07T05:07:53.459Z,1030.36
2016-12-07T05:09:02.286Z,1030.36
2016-12-07T05:10:11.158Z,1030.35
2016-12-07T05:11:20.013Z,1030.36
2016-12-07T05:12:28.864Z,1030.35
2016-12-07T05:13:37.717Z,1030.38
2016-12-07T05:14:46.573Z,1030.38
2016-12-07T05:15:55.424Z,1030.39
2016-12-07T05:17:04.286Z,1030.42
2016-12-07T05:18:13.116Z,1030.37
2016-12-07T05:19:21.985Z,1030.36
2016-12-07T05:20:30.834Z,1030.36
2016-12-07T05:21:39.676Z,1030.3
2016-12-07T05:22:48.545Z,1030.31
2016-12-07T05:23:57.412Z,1030.28
2016-12-07T05:25:06.249Z,1030.27
2016-12-07T05:26:15.109Z,1030.26
2016-12-07T05:27:24.007Z,1030.24
2016-12-07T05:28:32.848Z,1030.22
2016-12-07T05:29:41.714Z,1030.21
2016-12-07T05:30:50.553Z,1030.18
2016-12-07T05:31:59.405Z,1030.2
2016-12-07T05:33:08.270Z,1030.2
2016-12-07T05:34:17.109Z,1030.15
2016-12-07T05:35:25.954Z,1030.16
2016-12-07T05:36:34.817Z,1030.09
2016-12-07T05:37:43.660Z,1030.09
2016-12-07T05:38:52.511Z,1030.09
2016-12-07T05:40:01.376Z,1030.11
2016-12-07T05:41:10.224Z,1030.11
2016-12-07T05:42:19.082Z,1030.17
2016-12-07T05:43:27.941Z,1030.2
2016-12-07T05:44:36.793Z,1030.24
2016-12-07T05:45:45.633Z,1030.22
2016-12-07T05:46:54.508Z,1030.17
2016-12-07T05:48:03.370Z,1030.16
2016-12-07T05:49:12.222Z,1030.13
2016-12-07T05:50:21.074Z,1030.08
2016-12-07T05:51:29.934Z,1030.11
2016-12-07T05:52:38.771Z,1030.12
2016-12-07T05:53:47.631Z,1030.1
2016-12-07T05:54:56.504Z,1030.1
2016-12-07T05:56:05.359Z,1030.12
2016-12-07T05:57:14.204Z,1030.13
2016-12-07T05:58:23.064Z,1030.22
2016-12-07T05:59:31.918Z,1030.2
2016-12-07T06:00:40.805Z,1030.21
2016-12-07T06:01:49.648Z,1030.23
2016-12-07T06:02:58.517Z,1030.21
2016-12-07T06:04:07.382Z,1030.22
2016-12-07T06:05:16.232Z,1030.16
2016-12-07T06:06:25.082Z,1030.12
2016-12-07T06:07:33.957Z,1030.12
2016-12-07T06:08:42.796Z,1030.08
2016-12-07T06:09:51.644Z,1030.03
2016-12-07T06:11:00.513Z,1029.94
2016-12-07T06:12:09.370Z,1029.96
2016-12-07T06:13:18.211Z,1029.99
2016-12-07T06:14:27.077Z,1029.98
2016-12-07T06:15:35.933Z,1030
2016-12-07T06:16:44.807Z,1029.99
2016-12-07T06:17:53.657Z,1030.01
2016-12-07T06:19:02.504Z,1029.97
2016-12-07T06:20:11.376Z,1029.96
2016-12-07T06:21:20.228Z,1029.95
2016-12-07T06:22:29.094Z,1029.96
2016-12-07T06:23:37.966Z,1029.98
2016-12-07T06:24:46.830Z,1030.01
2016-12-07T06:25:55.665Z,1029.97
2016-12-07T06:27:04.527Z,1029.89
2016-12-07T06:28:13.379Z,1029.89
2016-12-07T06:29:22.240Z,1029.91
2016-12-07T06:30:31.080Z,1029.94
2016-12-07T06:31:39.915Z,1029.96
2016-12-07T06:32:48.782Z,1029.95
2016-12-07T06:33:57.665Z,1029.98
2016-12-07T06:35:06.512Z,1030
2016-12-07T06:36:15.368Z,1029.99
2016-12-07T06:37:24.230Z,1029.96
2016-12-07T06:38:33.057Z,1029.93
2016-12-07T06:39:41.918Z,1029.87
2016-12-07T06:40:50.787Z,1029.89
2016-12-07T06:41:59.632Z,1029.84
2016-12-07T06:43:08.487Z,1029.83
2016-12-07T06:44:17.331Z,1029.84
2016-12-07T06:45:26.196Z,1029.84
2016-12-07T06:46:35.044Z,1029.82
2016-12-07T06:47:43.882Z,1029.82
2016-12-07T06:48:52.743Z,1029.77
2016-12-07T06:50:01.616Z,1029.77
2016-12-07T06:51:10.462Z,1029.73
2016-12-07T06:52:19.314Z,1029.72
2016-12-07T06:53:28.180Z,1029.8
2016-12-07T06:54:37.025Z,1029.69
2016-12-07T06:55:45.869Z,1029.67
2016-12-07T06:56:54.740Z,1029.61
2016-12-07T06:58:03.625Z,1029.62
2016-12-07T06:59:12.476Z,1029.61
2016-12-07T07:00:21.330Z,1029.62
2016-12-07T07:01:30.197Z,1029.61
2016-12-07T07:02:39.072Z,1029.58
2016-12-07T07:03:47.908Z,1029.58
2016-12-07T07:04:56.755Z,1029.63
2016-12-07T07:06:05.630Z,1029.63
2016-12-07T07:07:14.486Z,1029.62
2016-12-07T07:08:23.326Z,1029.63
2016-12-07T07:09:32.186Z,1029.59
2016-12-07T07:10:41.041Z,1029.6
2016-12-07T07:11:49.884Z,1029.58
2016-12-07T07:12:58.748Z,1029.58
2016-12-07T07:14:07.597Z,1029.54
2016-12-07T07:15:16.459Z,1029.55
2016-12-07T07:16:25.307Z,1029.59
2016-12-07T07:17:34.151Z,1029.62
2016-12-07T07:18:43.021Z,1029.61
2016-12-07T07:19:51.890Z,1029.58
2016-12-07T07:21:00.717Z,1029.59
2016-12-07T07:22:09.574Z,1029.63
2016-12-07T07:23:18.422Z,1029.7
2016-12-07T07:24:27.265Z,1029.68
2016-12-07T07:25:36.123Z,1029.71
2016-12-07T07:26:44.992Z,1029.79
2016-12-07T07:27:53.842Z,1029.79
2016-12-07T07:29:02.704Z,1029.78
2016-12-07T07:30:11.549Z,1029.73
2016-12-07T07:31:20.419Z,1029.8
2016-12-07T07:32:29.278Z,1029.79
2016-12-07T07:33:38.115Z,1029.79
2016-12-07T07:34:46.957Z,1029.76
2016-12-07T07:35:55.831Z,1029.76
2016-12-07T07:37:04.708Z,1029.65
2016-12-07T07:38:13.565Z,1029.72
2016-12-07T07:39:22.442Z,1029.68
2016-12-07T07:40:31.611Z,1029.68
2016-12-07T07:41:40.467Z,1029.65
2016-12-07T07:42:49.347Z,1029.65
2016-12-07T07:43:58.213Z,1029.65
2016-12-07T07:45:07.369Z,1029.62
2016-12-07T07:46:16.237Z,1029.61
2016-12-07T07:47:25.095Z,1029.62
2016-12-07T07:48:33.947Z,1029.62
2016-12-07T07:49:42.811Z,1029.6
2016-12-07T07:50:51.673Z,1029.63
2016-12-07T07:52:00.520Z,1029.58
2016-12-07T07:53:09.372Z,1029.52
2016-12-07T07:54:18.241Z,1029.52
2016-12-07T07:55:27.111Z,1029.49
2016-12-07T07:56:35.966Z,1029.46
2016-12-07T07:57:44.820Z,1029.44
2016-12-07T07:58:53.676Z,1029.43
2016-12-07T08:00:02.535Z,1029.41
2016-12-07T08:01:11.374Z,1029.43
2016-12-07T08:02:20.231Z,1029.44
2016-12-07T08:03:29.105Z,1029.52
2016-12-07T08:04:37.941Z,1029.54
2016-12-07T08:05:46.805Z,1029.62
2016-12-07T08:06:55.683Z,1029.61
2016-12-07T08:08:04.537Z,1029.62
2016-12-07T08:09:13.402Z,1029.65
2016-12-07T08:10:22.276Z,1029.6
2016-12-07T08:11:31.126Z,1029.59
2016-12-07T08:12:39.992Z,1029.52
2016-12-07T08:13:48.846Z,1029.55
2016-12-07T08:14:57.709Z,1029.58
2016-12-07T08:16:06.892Z,1029.55
2016-12-07T08:17:15.746Z,1029.62
2016-12-07T08:18:24.587Z,1029.59
2016-12-07T08:19:33.466Z,1029.59
2016-12-07T08:20:42.321Z,1029.61
2016-12-07T08:21:51.161Z,1029.63
2016-12-07T08:23:00.022Z,1029.64
2016-12-07T08:24:08.888Z,1029.58
2016-12-07T08:25:17.727Z,1029.59
2016-12-07T08:26:26.578Z,1029.59
2016-12-07T08:27:35.422Z,1029.55
2016-12-07T08:28:44.285Z,1029.54
2016-12-07T08:29:53.133Z,1029.54
2016-12-07T08:31:02.003Z,1029.52
2016-12-07T08:32:10.879Z,1029.49
2016-12-07T08:33:19.742Z,1029.52
2016-12-07T08:34:28.579Z,1029.55
2016-12-07T08:35:37.447Z,1029.54
2016-12-07T08:36:46.312Z,1029.56
2016-12-07T10:25:45.451Z,1027.74
2016-12-07T10:26:55.410Z,1027.67
2016-12-07T10:28:05.677Z,1027.68
2016-12-07T10:29:15.624Z,1027.69
2016-12-07T10:30:25.586Z,1027.63
2016-12-07T10:31:35.863Z,1027.6
2016-12-07T10:32:46.136Z,1027.58
2016-12-07T10:33:55.790Z,1027.58
2016-12-07T10:35:05.773Z,1027.57
2016-12-07T10:36:15.490Z,1027.59
2016-12-07T10:37:26.091Z,1027.58
2016-12-07T10:38:35.759Z,1027.48
2016-12-07T10:39:45.730Z,1027.48
2016-12-07T10:40:55.695Z,1027.46
2016-12-07T10:42:05.695Z,1027.47
2016-12-07T10:43:15.659Z,1027.46
2016-12-07T10:44:25.439Z,1027.42
2016-12-07T10:45:35.141Z,1027.41
2016-12-07T10:46:45.148Z,1027.38
2016-12-07T10:47:54.798Z,1027.39
2016-12-07T10:49:05.432Z,1027.32
2016-12-07T10:50:15.106Z,1027.31
2016-12-07T10:51:25.401Z,1027.27
2016-12-07T10:52:35.412Z,1027.28
2016-12-07T10:53:45.090Z,1027.21
2016-12-07T10:54:55.144Z,1027.17
2016-12-07T10:56:05.186Z,1027.16
2016-12-07T10:57:15.508Z,1027.13
2016-12-07T10:58:25.500Z,1027.08
2016-12-07T10:59:36.053Z,1027.07
2016-12-07T11:00:46.361Z,1027.03
2016-12-07T11:01:56.050Z,1026.97
2016-12-07T11:03:05.747Z,1026.92
2016-12-07T11:04:16.043Z,1026.88
2016-12-07T11:05:26.351Z,1026.89
2016-12-07T11:06:36.943Z,1026.85
2016-12-07T11:07:47.222Z,1026.82
2016-12-07T11:08:56.888Z,1026.86
2016-12-07T11:10:06.854Z,1026.77
2016-12-07T11:11:17.135Z,1026.72
2016-12-07T11:12:27.705Z,1026.63
2016-12-07T11:13:37.427Z,1026.58
2016-12-07T11:14:47.723Z,1026.59
2016-12-07T11:15:58.028Z,1026.58
2016-12-07T11:17:08.217Z,1026.57
2016-12-07T11:18:19.251Z,1026.54
2016-12-07T11:19:29.565Z,1026.55
2016-12-07T11:20:39.898Z,1026.58
2016-12-07T11:21:50.443Z,1026.52
2016-12-07T11:23:01.280Z,1026.53
2016-12-07T11:24:10.691Z,1026.47
2016-12-07T11:25:21.061Z,1026.4
2016-12-07T11:26:31.410Z,1026.44
2016-12-07T11:27:41.113Z,1026.43
2016-12-07T11:28:50.789Z,1026.38
2016-12-07T11:30:00.742Z,1026.33
2016-12-07T11:31:10.735Z,1026.3
2016-12-07T11:32:20.466Z,1026.26
2016-12-07T11:33:30.768Z,1026.26
2016-12-07T11:34:41.276Z,1026.17
2016-12-07T11:35:51.559Z,1026.19
2016-12-07T11:37:01.208Z,1026.16
2016-12-07T11:38:11.178Z,1026.14
2016-12-07T11:39:20.851Z,1026.14
2016-12-07T11:40:31.123Z,1026.19
2016-12-07T11:41:41.427Z,1026.22
2016-12-07T11:42:51.083Z,1026.24
2016-12-07T11:44:01.379Z,1026.36
2016-12-07T11:45:11.652Z,1026.43
2016-12-07T11:46:21.632Z,1026.5
2016-12-07T11:47:31.626Z,1026.47
2016-12-07T11:48:41.610Z,1026.45
2016-12-07T11:49:51.911Z,1026.42
2016-12-07T11:51:01.879Z,1026.38
2016-12-07T11:52:12.487Z,1026.32
2016-12-07T11:53:22.446Z,1026.26
2016-12-07T11:54:32.736Z,1026.26
2016-12-07T11:55:42.781Z,1026.26
2016-12-07T11:56:52.435Z,1026.21
2016-12-07T11:58:03.024Z,1026.17
2016-12-07T11:59:13.011Z,1026.14
2016-12-07T12:00:22.979Z,1026.17
2016-12-07T12:01:33.280Z,1026.16
2016-12-07T12:02:43.565Z,1026.17
2016-12-07T12:03:53.833Z,1026.16
2016-12-07T12:05:03.181Z,1026.2
2016-12-07T12:06:12.829Z,1026.19
2016-12-07T12:07:22.813Z,1026.17
2016-12-07T12:08:32.804Z,1026.12
2016-12-07T12:09:43.066Z,1026.15
2016-12-07T12:10:53.342Z,1026.16
2016-12-07T12:12:03.617Z,1026.18
2016-12-07T12:13:13.594Z,1026.18
2016-12-07T12:14:23.883Z,1026.22
2016-12-07T12:15:34.560Z,1026.2
2016-12-07T12:16:44.528Z,1026.2
2016-12-07T12:17:54.832Z,1026.2
2016-12-07T12:19:05.125Z,1026.21
2016-12-07T12:20:15.118Z,1026.22
2016-12-07T12:21:25.112Z,1026.18
2016-12-07T12:22:35.085Z,1026.14
2016-12-07T12:23:45.066Z,1026.13
2016-12-07T12:24:55.342Z,1026.16
2016-12-07T12:26:05.613Z,1026.12
2016-12-07T12:27:15.894Z,1026.09
2016-12-07T12:28:10.112Z,1026.11
2016-12-07T12:29:20.119Z,1026.02
2016-12-07T12:30:30.400Z,1026.03
2016-12-07T12:31:39.731Z,1026.01
2016-12-07T12:32:50.031Z,1025.94
2016-12-07T12:33:59.990Z,1025.96
2016-12-07T12:35:10.266Z,1025.89
2016-12-07T12:36:19.930Z,1025.93
2016-12-07T12:37:30.522Z,1025.9
2016-12-07T12:38:40.800Z,1025.9
2016-12-07T12:39:50.767Z,1025.92
2016-12-07T12:41:00.781Z,1025.91
2016-12-07T12:42:10.737Z,1025.85
2016-12-07T12:43:21.315Z,1025.86
2016-12-07T12:44:31.280Z,1025.86
2016-12-07T12:45:41.245Z,1025.85
2016-12-07T12:46:51.536Z,1025.88
2016-12-07T12:48:01.818Z,1025.93
2016-12-07T12:49:12.397Z,1025.96
2016-12-07T12:50:22.355Z,1025.98
2016-12-07T12:51:32.637Z,1025.95
2016-12-07T12:52:42.912Z,1025.98
2016-12-07T12:53:53.194Z,1025.92
2016-12-07T12:55:03.773Z,1025.93
2016-12-07T12:56:14.066Z,1025.9
2016-12-07T12:57:24.340Z,1025.91
2016-12-07T12:58:34.617Z,1025.93
2016-12-07T12:59:44.909Z,1025.88
2016-12-07T13:00:55.226Z,1025.81
2016-12-07T13:02:05.213Z,1025.79
2016-12-07T13:03:15.190Z,1025.78
2016-12-07T13:04:25.479Z,1025.79
2016-12-07T13:05:35.177Z,1025.82
2016-12-07T13:06:45.826Z,1025.79
2016-12-07T13:07:56.128Z,1025.74
2016-12-07T13:09:06.153Z,1025.74
2016-12-07T13:10:16.134Z,1025.72
2016-12-07T13:11:26.113Z,1025.74
2016-12-07T13:12:36.389Z,1025.75
2016-12-07T13:13:46.045Z,1025.79
2016-12-07T13:14:56.336Z,1025.79
2016-12-07T13:16:06.639Z,1025.77
2016-12-07T13:17:15.977Z,1025.72
2016-12-07T13:18:25.979Z,1025.69
2016-12-07T13:19:36.274Z,1025.67
2016-12-07T13:20:45.940Z,1025.66
2016-12-07T13:21:56.226Z,1025.65
2016-12-07T13:23:06.502Z,1025.62
2016-12-07T13:24:17.109Z,1025.65
2016-12-07T13:25:26.773Z,1025.67
2016-12-07T13:26:37.046Z,1025.65
2016-12-07T13:27:47.311Z,1025.64
2016-12-07T13:28:56.966Z,1025.66
2016-12-07T13:30:07.537Z,1025.72
2016-12-07T13:30:48.641Z,1025.72
2016-12-07T13:31:58.286Z,1025.76
2016-12-07T13:33:07.966Z,1025.74
2016-12-07T13:34:18.321Z,1025.76
2016-12-07T13:35:28.903Z,1025.75
2016-12-07T13:36:39.198Z,1025.76
2016-12-07T13:37:49.492Z,1025.76
2016-12-07T13:38:59.168Z,1025.69
2016-12-07T13:40:08.883Z,1025.71
2016-12-07T13:41:19.485Z,1025.67
2016-12-07T13:42:29.450Z,1025.67
2016-12-07T13:43:38.797Z,1025.69
2016-12-07T13:44:48.448Z,1025.69
2016-12-07T13:45:58.723Z,1025.66
2016-12-07T13:47:08.998Z,1025.6
2016-12-07T13:48:19.274Z,1025.58
2016-12-07T13:49:29.555Z,1025.53
2016-12-07T13:50:39.837Z,1025.51
2016-12-07T13:51:50.115Z,1025.53
2016-12-07T13:52:59.775Z,1025.5
2016-12-07T13:54:10.080Z,1025.49
2016-12-07T13:55:20.358Z,1025.48
2016-12-07T13:56:30.636Z,1025.41
2016-12-07T13:57:40.619Z,1025.42
2016-12-07T13:58:51.212Z,1025.37
2016-12-07T14:00:01.197Z,1025.39
2016-12-07T14:01:11.475Z,1025.41
2016-12-07T14:02:21.762Z,1025.41
2016-12-07T14:03:31.430Z,1025.4
2016-12-07T14:04:42.284Z,1025.38
2016-12-07T14:05:51.954Z,1025.39
2016-12-07T14:07:02.236Z,1025.36
2016-12-07T14:08:12.516Z,1025.4
2016-12-07T14:09:22.181Z,1025.38
2016-12-07T14:10:32.792Z,1025.36
2016-12-07T14:11:42.776Z,1025.35
2016-12-07T14:12:52.760Z,1025.39
2016-12-07T14:14:02.418Z,1025.41
2016-12-07T14:15:12.075Z,1025.42
2016-12-07T14:16:21.743Z,1025.4
2016-12-07T14:17:31.722Z,1025.39
2016-12-07T14:18:42.021Z,1025.36
2016-12-07T14:19:51.665Z,1025.38
2016-12-07T14:21:01.947Z,1025.34
2016-12-07T14:22:12.583Z,1025.37
2016-12-07T14:23:22.553Z,1025.35
2016-12-07T14:24:32.513Z,1025.37
2016-12-07T14:25:42.807Z,1025.34
2016-12-07T14:26:53.088Z,1025.34
2016-12-07T14:28:03.380Z,1025.39
2016-12-07T14:29:13.345Z,1025.37
2016-12-07T14:30:23.332Z,1025.38
2016-12-07T14:31:33.294Z,1025.36
2016-12-07T14:32:43.309Z,1025.32
2016-12-07T14:33:53.626Z,1025.36
2016-12-07T14:35:03.911Z,1025.32
2016-12-07T14:36:14.189Z,1025.31
2016-12-07T14:37:24.486Z,1025.37
2016-12-07T14:38:34.775Z,1025.33
2016-12-07T14:39:44.432Z,1025.28
2016-12-07T14:40:54.720Z,1025.32
2016-12-07T14:42:04.684Z,1025.29
2016-12-07T14:43:14.655Z,1025.28
2016-12-07T14:44:24.930Z,1025.22
2016-12-07T14:45:34.595Z,1025.15
2016-12-07T14:46:44.908Z,1025.14
2016-12-07T14:47:54.575Z,1025.11
2016-12-07T14:49:04.869Z,1025.08
2016-12-07T14:50:14.825Z,1025.07
2016-12-07T14:51:24.484Z,1025.07
2016-12-07T14:52:34.479Z,1025.11
2016-12-07T14:53:44.437Z,1025.06
2016-12-07T14:54:54.395Z,1025.06
2016-12-07T14:56:04.994Z,1025.07
2016-12-07T14:57:15.279Z,1025.11
2016-12-07T14:58:24.648Z,1025.14
2016-12-07T14:59:34.914Z,1025.15
2016-12-07T15:00:44.894Z,1025.17
2016-12-07T15:01:55.157Z,1025.17
2016-12-07T15:03:05.421Z,1025.21
2016-12-07T15:04:15.383Z,1025.2
2016-12-07T15:05:25.331Z,1025.2
2016-12-07T15:06:35.310Z,1025.18
2016-12-07T15:07:45.332Z,1025.14
2016-12-07T15:08:55.283Z,1025.17
2016-12-07T15:10:05.561Z,1025.18
2016-12-07T15:11:15.213Z,1025.2
2016-12-07T15:12:25.478Z,1025.17
2016-12-07T15:13:36.058Z,1025.17
2016-12-07T15:14:46.377Z,1025.24
2016-12-07T15:15:56.338Z,1025.23
2016-12-07T15:17:06.643Z,1025.29
2016-12-07T15:18:16.919Z,1025.3
2016-12-07T15:19:26.882Z,1025.3
2016-12-07T15:20:37.164Z,1025.32
2016-12-07T15:21:46.830Z,1025.29
2016-12-07T15:22:56.805Z,1025.23
2016-12-07T15:24:06.783Z,1025.18
2016-12-07T15:25:17.060Z,1025.18
2016-12-07T15:26:27.034Z,1025.2
2016-12-07T15:27:37.009Z,1025.21
2016-12-07T15:28:47.319Z,1025.16
2016-12-07T15:29:57.618Z,1025.13
2016-12-07T15:31:07.895Z,1025.12
2016-12-07T15:32:18.176Z,1025.13
2016-12-07T15:33:28.141Z,1025.12
2016-12-07T15:34:38.104Z,1025.14
2016-12-07T15:35:48.355Z,1025.1
2016-12-07T15:36:58.313Z,1025.07
2016-12-07T15:38:07.977Z,1025.12
2016-12-07T15:39:18.262Z,1025.13
2016-12-07T15:40:28.547Z,1025.13
2016-12-07T15:41:38.835Z,1025.16
2016-12-07T15:42:49.104Z,1025.18
2016-12-07T15:43:59.386Z,1025.16
2016-12-07T15:45:09.058Z,1025.14
2016-12-07T15:46:19.032Z,1025.15
2016-12-07T15:47:28.994Z,1025.15